Time,TemperatureF,DewpointF,PressureIn,WindDirection,WindDirectionDegrees,WindSpeedMPH,WindSpeedGustMPH,Humidity,HourlyPrecipIn,Conditions,Clouds,dailyrainin,SoftwareType,DateUTC
2013-07-26 00:01:00,82.0,46.0,30.06,WNW,297,22.0,32.0,28,0.00,,,0.00,,2013-07-26 07:01:00,
2013-07-26 00:32:00,82.0,46.0,30.06,WNW,289,18.0,30.0,28,0.00,,,0.00,,2013-07-26 07:32:00,
2013-07-26 00:42:00,82.0,46.0,30.06,WNW,289,18.0,30.0,28,0.00,,,0.00,,2013-07-26 07:42:00,
2013-07-26 00:52:00,82.0,46.0,30.06,WNW,303,17.0,31.0,28,0.00,,,0.00,,2013-07-26 07:52:00,
2013-07-26 01:02:00,82.0,47.0,30.08,West,270,17.0,30.0,29,0.00,,,0.00,,2013-07-26 08:02:00,
2013-07-26 01:22:00,81.0,50.0,30.06,NW,308,19.0,29.0,34,0.00,,,0.00,,2013-07-26 08:22:00,
2013-07-26 01:32:00,80.0,48.0,30.04,WNW,300,24.0,32.0,33,0.00,,,0.00,,2013-07-26 08:32:00,
2013-07-26 01:43:00,80.0,47.0,30.04,WNW,294,24.0,35.0,32,0.00,,,0.00,,2013-07-26 08:43:00,
2013-07-26 02:01:00,80.0,47.0,30.05,WNW,299,24.0,33.0,32,0.00,,,0.00,,2013-07-26 09:01:00,
2013-07-26 02:12:00,81.0,48.0,30.08,WNW,296,20.0,31.0,32,0.00,,,0.00,,2013-07-26 09:12:00,
2013-07-26 02:32:00,80.0,47.0,30.09,WNW,296,19.0,31.0,32,0.00,,,0.00,,2013-07-26 09:32:00,
2013-07-26 02:43:00,80.0,47.0,30.09,WNW,296,19.0,31.0,32,0.00,,,0.00,,2013-07-26 09:43:00,
2013-07-26 02:52:00,80.0,48.0,30.10,NW,307,17.0,30.0,33,0.00,,,0.00,,2013-07-26 09:52:00,
2013-07-26 03:02:00,77.0,53.0,30.10,WNW,301,19.0,28.0,43,0.00,,,0.00,,2013-07-26 10:02:00,
2013-07-26 03:11:00,76.0,52.0,30.10,NW,307,18.0,26.0,44,0.00,,,0.00,,2013-07-26 10:11:00,
2013-07-26 03:21:00,76.0,52.0,30.10,WNW,298,13.0,24.0,43,0.00,,,0.00,,2013-07-26 10:21:00,
2013-07-26 03:42:00,78.0,52.0,30.09,West,269,11.0,23.0,40,0.01,,,0.01,,2013-07-26 10:42:00,
2013-07-26 03:52:00,78.0,50.0,30.09,WNW,294,15.0,22.0,38,0.01,,,0.01,,2013-07-26 10:52:00,
2013-07-26 04:01:00,79.0,50.0,30.08,WNW,288,18.0,26.0,37,0.01,,,0.01,,2013-07-26 11:01:00,
2013-07-26 04:11:00,79.0,50.0,30.08,West,279,17.0,25.0,37,0.01,,,0.01,,2013-07-26 11:11:00,
2013-07-26 04:32:00,78.0,51.0,30.09,West,277,13.0,23.0,39,0.00,,,0.01,,2013-07-26 11:32:00,
2013-07-26 04:43:00,77.0,54.0,30.08,WNW,295,18.0,26.0,45,0.00,,,0.01,,2013-07-26 11:43:00,
2013-07-26 04:52:00,77.0,52.0,30.08,WNW,293,19.0,26.0,42,0.00,,,0.01,,2013-07-26 11:52:00,
2013-07-26 05:01:00,77.0,53.0,30.07,WNW,294,20.0,29.0,43,0.00,,,0.01,,2013-07-26 12:01:00,
2013-07-26 05:11:00,77.0,53.0,30.08,WNW,297,23.0,30.0,43,0.00,,,0.01,,2013-07-26 12:11:00,
2013-07-26 05:22:00,77.0,52.0,30.08,WNW,294,18.0,31.0,42,0.00,,,0.01,,2013-07-26 12:22:00,
2013-07-26 05:33:00,78.0,52.0,30.08,WNW,299,27.0,34.0,41,0.00,,,0.01,,2013-07-26 12:33:00,
2013-07-26 05:43:00,78.0,52.0,30.07,WNW,294,26.0,34.0,41,0.00,,,0.01,,2013-07-26 12:43:00,
2013-07-26 05:53:00,78.0,53.0,30.07,WNW,296,21.0,36.0,42,0.00,,,0.01,,2013-07-26 12:53:00,
2013-07-26 06:32:00,78.0,52.0,30.08,WNW,298,19.0,33.0,40,0.00,,,0.01,,2013-07-26 13:32:00,
2013-07-26 06:43:00,78.0,52.0,30.09,WNW,301,18.0,31.0,41,0.00,,,0.01,,2013-07-26 13:43:00,
2013-07-26 07:02:00,79.0,50.0,30.10,WNW,299,11.0,31.0,37,0.00,,,0.01,,2013-07-26 14:02:00,
2013-07-26 07:11:00,79.0,51.0,30.09,WNW,299,12.0,25.0,38,0.00,,,0.01,,2013-07-26 14:11:00,
2013-07-26 07:43:00,78.0,52.0,30.12,SW,221,19.0,30.0,41,0.00,,,0.01,,2013-07-26 14:43:00,
2013-07-26 07:53:00,78.0,52.0,30.13,WSW,243,16.0,25.0,41,0.00,,,0.01,,2013-07-26 14:53:00,
2013-07-26 08:32:00,80.0,53.0,30.13,SW,234,18.0,25.0,39,0.00,,,0.01,,2013-07-26 15:32:00,
2013-07-26 08:43:00,79.0,53.0,30.14,WSW,253,17.0,25.0,40,0.00,,,0.01,,2013-07-26 15:43:00,
2013-07-26 08:53:00,79.0,53.0,30.14,WSW,255,17.0,25.0,41,0.00,,,0.01,,2013-07-26 15:53:00,
2013-07-26 09:02:00,78.0,53.0,30.14,WSW,250,16.0,23.0,42,0.00,,,0.01,,2013-07-26 16:02:00,
2013-07-26 09:14:00,78.0,53.0,30.14,WSW,243,19.0,26.0,42,0.00,,,0.01,,2013-07-26 16:14:00,
2013-07-26 09:43:00,80.0,54.0,30.14,WSW,238,17.0,27.0,41,0.00,,,0.01,,2013-07-26 16:43:00,
2013-07-26 10:33:00,83.0,53.0,30.14,SW,234,16.0,23.0,36,0.00,,,0.01,,2013-07-26 17:33:00,
2013-07-26 10:43:00,84.0,54.0,30.14,SW,234,17.0,24.0,36,0.00,,,0.01,,2013-07-26 17:43:00,
2013-07-26 10:52:00,84.0,53.0,30.14,SW,220,17.0,24.0,35,0.00,,,0.01,,2013-07-26 17:52:00,
2013-07-26 11:02:00,83.0,54.0,30.15,SSW,207,12.0,22.0,37,0.00,,,0.01,,2013-07-26 18:02:00,
2013-07-26 11:32:00,83.0,55.0,30.16,WSW,247,13.0,17.0,38,0.00,,,0.01,,2013-07-26 18:32:00,
2013-07-26 11:43:00,84.0,54.0,30.17,WSW,251,8.0,11.0,36,0.00,,,0.01,,2013-07-26 18:43:00,
2013-07-26 11:52:00,84.0,55.0,30.17,WSW,249,10.0,13.0,37,0.00,,,0.01,,2013-07-26 18:52:00,
2013-07-26 12:02:00,84.0,55.0,30.17,WSW,245,9.0,12.0,37,0.00,,,0.01,,2013-07-26 19:02:00,
2013-07-26 12:11:00,84.0,55.0,30.17,WSW,245,9.0,12.0,37,0.00,,,0.01,,2013-07-26 19:11:00,
2013-07-26 12:43:00,84.0,56.0,30.16,WSW,241,11.0,16.0,39,0.00,,,0.01,,2013-07-26 19:43:00,
2013-07-26 12:52:00,84.0,56.0,30.16,WSW,240,10.0,14.0,38,0.00,,,0.01,,2013-07-26 19:52:00,
2013-07-26 13:32:00,84.0,56.0,30.12,WNW,296,8.0,13.0,39,0.00,,,0.01,,2013-07-26 20:32:00,
2013-07-26 15:32:00,82.0,61.0,30.14,North,360,6.0,8.0,49,0.01,,,0.02,,2013-07-26 22:32:00,
2013-07-26 16:43:00,75.0,62.0,30.11,WNW,292,5.0,13.0,64,0.06,,,0.08,,2013-07-26 23:43:00,
2013-07-26 16:52:00,74.0,64.0,30.11,WSW,239,4.0,12.0,72,0.04,,,0.08,,2013-07-26 23:52:00,
2013-07-26 17:32:00,78.0,58.0,30.11,West,272,8.0,12.0,50,0.00,,,0.08,,2013-07-27 00:32:00,
2013-07-26 17:42:00,79.0,59.0,30.11,West,263,6.0,12.0,50,0.00,,,0.08,,2013-07-27 00:42:00,
2013-07-26 17:53:00,79.0,58.0,30.11,WSW,255,7.0,11.0,48,0.00,,,0.08,,2013-07-27 00:53:00,
2013-07-26 18:01:00,78.0,59.0,30.11,SW,225,8.0,11.0,53,0.00,,,0.08,,2013-07-27 01:01:00,
2013-07-26 18:11:00,78.0,60.0,30.11,SW,229,10.0,13.0,54,0.00,,,0.08,,2013-07-27 01:11:00,
2013-07-26 18:32:00,78.0,61.0,30.11,WSW,238,7.0,10.0,56,0.00,,,0.08,,2013-07-27 01:32:00,
2013-07-26 18:43:00,78.0,61.0,30.10,SW,235,8.0,10.0,56,0.00,,,0.08,,2013-07-27 01:43:00,
2013-07-26 19:02:00,78.0,61.0,30.11,SW,229,6.0,11.0,55,0.00,,,0.08,,2013-07-27 02:02:00,
2013-07-26 19:32:00,79.0,60.0,30.10,SW,231,5.0,9.0,53,0.00,,,0.08,,2013-07-27 02:32:00,
2013-07-26 19:52:00,79.0,61.0,30.10,SW,234,4.0,7.0,54,0.00,,,0.08,,2013-07-27 02:52:00,
2013-07-26 20:11:00,78.0,59.0,30.10,WNW,290,6.0,7.0,53,0.00,,,0.08,,2013-07-27 03:11:00,
2013-07-26 20:43:00,78.0,60.0,30.10,WSW,251,6.0,9.0,54,0.00,,,0.08,,2013-07-27 03:43:00,
2013-07-26 20:52:00,77.0,60.0,30.09,WSW,240,8.0,11.0,55,0.00,,,0.08,,2013-07-27 03:52:00,
2013-07-26 21:02:00,77.0,60.0,30.09,WSW,239,10.0,14.0,55,0.00,,,0.08,,2013-07-27 04:02:00,
2013-07-26 21:11:00,77.0,60.0,30.09,WSW,239,10.0,14.0,55,0.00,,,0.08,,2013-07-27 04:11:00,
2013-07-26 21:32:00,76.0,59.0,30.10,WSW,239,12.0,16.0,56,0.00,,,0.08,,2013-07-27 04:32:00,
2013-07-26 21:43:00,77.0,59.0,30.11,West,264,7.0,16.0,53,0.00,,,0.08,,2013-07-27 04:43:00,
2013-07-26 21:53:00,77.0,59.0,30.11,West,264,7.0,16.0,53,0.00,,,0.08,,2013-07-27 04:53:00,
2013-07-26 22:11:00,78.0,57.0,30.11,West,276,9.0,14.0,49,0.00,,,0.08,,2013-07-27 05:11:00,
2013-07-26 22:22:00,78.0,57.0,30.11,West,270,7.0,10.0,49,0.00,,,0.08,,2013-07-27 05:22:00,
2013-07-26 22:32:00,76.0,57.0,30.11,WSW,254,7.0,13.0,51,0.00,,,0.08,,2013-07-27 05:32:00,
2013-07-26 22:43:00,77.0,57.0,30.12,WSW,250,7.0,13.0,50,0.00,,,0.08,,2013-07-27 05:43:00,
2013-07-26 22:52:00,76.0,57.0,30.11,WSW,253,8.0,12.0,51,0.00,,,0.08,,2013-07-27 05:52:00,
2013-07-26 23:43:00,78.0,57.0,30.10,WNW,293,15.0,22.0,48,0.00,,,0.08,,2013-07-27 06:43:00,